createdAt,value
2023-01-25T00:00:54.590Z,10.40
2023-01-25T00:03:28.138Z,8.32
2023-01-25T00:06:00.955Z,8.18
2023-01-25T00:08:29.536Z,8.93
2023-01-25T00:10:58.545Z,7.78
2023-01-25T00:13:27.063Z,7.88
2023-01-25T00:16:02.223Z,7.90
2023-01-25T00:18:30.569Z,8.73
2023-01-25T00:20:58.517Z,8.77
2023-01-25T00:23:26.723Z,8.93
2023-01-25T00:25:58.857Z,9.43
2023-01-25T00:28:27.366Z,9.77
2023-01-25T00:31:00.127Z,9.55
2023-01-25T00:33:36.362Z,8.30
2023-01-25T00:36:27.807Z,6.85
2023-01-25T00:38:56.216Z,8.43
2023-01-25T00:41:24.221Z,9.43
2023-01-25T00:43:52.675Z,9.93
2023-01-25T00:46:21.957Z,10.32
2023-01-25T00:48:50.141Z,10.15
2023-01-25T00:51:18.106Z,9.02
2023-01-25T00:53:46.333Z,8.95
2023-01-25T00:56:14.398Z,8.15
2023-01-25T00:58:42.761Z,10.00
2023-01-25T01:01:11.258Z,10.52
2023-01-25T01:03:40.850Z,10.07
2023-01-25T01:06:09.930Z,10.60
2023-01-25T01:08:41.230Z,10.13
2023-01-25T01:11:11.573Z,8.48
2023-01-25T01:13:40.427Z,8.68
2023-01-25T01:16:11.775Z,8.80
2023-01-25T01:18:43.005Z,9.80
2023-01-25T01:21:11.720Z,8.63
2023-01-25T01:23:40.137Z,7.85
2023-01-25T01:26:09.894Z,8.27
2023-01-25T01:28:39.358Z,7.88
2023-01-25T01:31:09.061Z,7.18
2023-01-25T01:33:37.298Z,7.78
2023-01-25T01:36:10.572Z,8.00
2023-01-25T01:38:38.838Z,8.05
2023-01-25T01:41:06.905Z,8.50
2023-01-25T01:43:35.264Z,8.27
2023-01-25T01:46:05.218Z,9.18
2023-01-25T01:48:37.271Z,9.50
2023-01-25T01:51:14.589Z,10.00
2023-01-25T01:53:45.713Z,8.68
2023-01-25T01:56:16.704Z,10.52
2023-01-25T01:58:45.587Z,10.80
2023-01-25T02:01:13.644Z,10.77
2023-01-25T02:03:42.172Z,11.20
2023-01-25T02:06:15.839Z,11.13
2023-01-25T02:08:44.122Z,9.73
2023-01-25T02:11:13.538Z,9.65
2023-01-25T02:13:41.942Z,10.45
2023-01-25T02:16:15.751Z,11.07
2023-01-25T02:18:44.090Z,10.73
2023-01-25T02:21:12.336Z,10.30
2023-01-25T02:23:48.424Z,11.18
2023-01-25T02:26:19.052Z,12.73
2023-01-25T02:28:51.704Z,11.88
2023-01-25T02:31:19.889Z,13.23
2023-01-25T02:33:48.421Z,11.85
2023-01-25T02:36:22.537Z,12.18
2023-01-25T02:38:54.623Z,13.02
2023-01-25T02:41:34.213Z,13.38
2023-01-25T02:44:05.146Z,13.23
2023-01-25T02:46:36.251Z,13.20
2023-01-25T02:49:07.070Z,14.32
2023-01-25T02:51:38.390Z,12.55
2023-01-25T02:54:08.754Z,12.38
2023-01-25T02:56:38.569Z,13.77
2023-01-25T02:59:06.882Z,13.55
2023-01-25T03:01:35.250Z,13.85
2023-01-25T03:04:03.600Z,13.50
2023-01-25T03:06:31.668Z,13.90
2023-01-25T03:09:00.289Z,13.15
2023-01-25T03:11:28.190Z,13.70
2023-01-25T03:13:57.931Z,13.63
2023-01-25T03:16:26.307Z,13.45
2023-01-25T03:18:55.150Z,12.77
2023-01-25T03:21:23.805Z,13.48
2023-01-25T03:23:57.070Z,12.40
2023-01-25T03:26:26.414Z,13.45
2023-01-25T03:28:55.238Z,12.65
2023-01-25T03:31:24.791Z,13.55
2023-01-25T03:33:53.307Z,12.77
2023-01-25T03:36:21.321Z,12.60
2023-01-25T03:38:49.621Z,13.80
2023-01-25T03:41:17.649Z,14.63
2023-01-25T03:43:45.930Z,20.38
2023-01-25T03:46:13.974Z,19.85
2023-01-25T03:48:43.700Z,19.40
2023-01-25T03:51:11.609Z,21.30
2023-01-25T03:53:39.976Z,20.00
2023-01-25T03:56:09.952Z,19.45
2023-01-25T03:58:39.153Z,19.20
2023-01-25T04:01:08.277Z,23.25
2023-01-25T04:03:36.845Z,14.98
2023-01-25T04:06:07.378Z,12.25
2023-01-25T04:08:35.844Z,13.85
2023-01-25T04:11:06.987Z,12.38
2023-01-25T04:13:36.628Z,11.68
2023-01-25T04:16:04.867Z,10.65
2023-01-25T04:18:33.225Z,11.32
2023-01-25T04:21:01.397Z,11.52
2023-01-25T04:23:30.961Z,12.50
2023-01-25T04:26:00.103Z,11.35
2023-01-25T04:28:29.145Z,11.63
2023-01-25T04:30:57.777Z,11.13
2023-01-25T04:33:26.760Z,11.98
2023-01-25T04:35:54.814Z,11.30
2023-01-25T04:38:23.234Z,12.20
2023-01-25T04:40:53.532Z,11.57
2023-01-25T04:43:24.269Z,10.60
2023-01-25T04:45:52.212Z,12.65
2023-01-25T04:48:20.505Z,11.63
2023-01-25T04:50:48.668Z,11.13
2023-01-25T04:53:16.904Z,12.07
2023-01-25T04:55:47.594Z,11.93
2023-01-25T04:58:17.401Z,11.25
2023-01-25T05:00:45.395Z,12.10
2023-01-25T05:03:13.730Z,11.75
2023-01-25T05:05:46.465Z,12.35
2023-01-25T05:08:14.936Z,12.05
2023-01-25T05:10:43.201Z,12.25
2023-01-25T05:13:11.410Z,13.00
2023-01-25T05:15:40.721Z,12.95
2023-01-25T05:18:09.291Z,12.80
2023-01-25T05:20:37.434Z,17.75
2023-01-25T05:23:05.706Z,18.17
2023-01-25T05:25:51.403Z,15.88
2023-01-25T05:28:19.574Z,12.23
2023-01-25T05:30:49.489Z,14.02
2023-01-25T05:33:17.934Z,24.30
2023-01-25T05:35:46.022Z,25.02
2023-01-25T05:38:14.498Z,23.27
2023-01-25T05:40:42.488Z,20.52
2023-01-25T05:43:10.802Z,19.35
2023-01-25T05:45:40.253Z,21.85
2023-01-25T05:48:09.884Z,15.93
2023-01-25T05:50:37.806Z,17.63
2023-01-25T05:53:06.251Z,19.20
2023-01-25T05:55:36.616Z,17.52
2023-01-25T05:58:05.047Z,15.52
2023-01-25T06:00:33.273Z,13.45
2023-01-25T06:03:02.606Z,12.90
2023-01-25T06:05:31.912Z,12.00
2023-01-25T06:08:00.414Z,13.73
2023-01-25T06:10:28.413Z,11.98
2023-01-25T06:12:59.222Z,13.68
2023-01-25T06:15:27.766Z,11.70
2023-01-25T06:17:56.438Z,15.75
2023-01-25T06:20:24.358Z,17.75
2023-01-25T06:22:54.264Z,16.92
2023-01-25T06:25:22.374Z,14.65
2023-01-25T06:27:50.526Z,14.32
2023-01-25T06:30:19.027Z,11.40
2023-01-25T06:32:47.464Z,13.57
2023-01-25T06:35:15.598Z,13.40
2023-01-25T06:37:44.160Z,14.52
2023-01-25T06:40:14.164Z,17.80
2023-01-25T06:42:42.375Z,20.83
2023-01-25T06:45:12.177Z,19.05
2023-01-25T06:47:40.593Z,16.30
2023-01-25T06:50:09.751Z,12.65
2023-01-25T06:52:38.365Z,12.07
2023-01-25T06:55:08.575Z,12.75
2023-01-25T06:57:38.263Z,14.18
2023-01-25T07:00:07.648Z,13.73
2023-01-25T07:02:37.395Z,13.40
2023-01-25T07:05:06.067Z,15.25
2023-01-25T07:07:34.559Z,11.95
2023-01-25T07:10:02.741Z,14.00
2023-01-25T07:12:31.186Z,13.77
2023-01-25T07:15:00.804Z,14.52
2023-01-25T07:17:29.104Z,14.57
2023-01-25T07:19:57.051Z,15.38
2023-01-25T07:22:25.426Z,15.88
2023-01-25T07:24:54.053Z,14.57
2023-01-25T07:27:22.219Z,15.10
2023-01-25T07:29:50.381Z,15.55
2023-01-25T07:32:20.047Z,14.30
2023-01-25T07:34:47.965Z,15.18
2023-01-25T07:37:16.591Z,16.45
2023-01-25T07:39:48.641Z,15.57
2023-01-25T07:42:17.426Z,15.38
2023-01-25T07:44:45.475Z,16.15
2023-01-25T07:47:13.840Z,17.70
2023-01-25T07:49:43.338Z,15.95
2023-01-25T07:52:11.684Z,17.27
2023-01-25T07:54:39.577Z,16.58
2023-01-25T07:57:07.920Z,16.55
2023-01-25T07:59:35.986Z,16.38
2023-01-25T08:02:04.727Z,15.18
2023-01-25T08:04:32.794Z,16.52
2023-01-25T08:07:02.545Z,18.52
2023-01-25T08:09:30.589Z,18.80
2023-01-25T08:11:58.850Z,18.33
2023-01-25T08:14:27.040Z,18.40
2023-01-25T08:16:55.215Z,19.60
2023-01-25T08:19:24.868Z,20.90
2023-01-25T08:21:53.577Z,17.63
2023-01-25T08:24:24.666Z,24.67
2023-01-25T08:26:53.723Z,21.10
2023-01-25T08:29:21.801Z,23.08
2023-01-25T08:31:50.071Z,24.38
2023-01-25T08:34:18.168Z,25.77
2023-01-25T08:36:46.537Z,26.80
2023-01-25T08:39:14.561Z,22.95
2023-01-25T08:41:45.601Z,25.02
2023-01-25T08:44:13.795Z,23.40
2023-01-25T08:46:42.439Z,26.75
2023-01-25T08:49:11.018Z,26.05
2023-01-25T08:51:39.337Z,25.85
2023-01-25T08:54:08.718Z,29.92
2023-01-25T08:56:38.375Z,29.67
2023-01-25T08:59:08.178Z,30.27
2023-01-25T09:01:36.602Z,32.22
2023-01-25T09:04:04.912Z,30.65
2023-01-25T09:06:34.435Z,34.67
2023-01-25T09:09:04.157Z,28.50
2023-01-25T09:11:36.937Z,21.63
2023-01-25T09:14:06.830Z,23.63
2023-01-25T09:16:35.239Z,19.08
2023-01-25T09:19:05.294Z,19.33
2023-01-25T09:21:34.693Z,18.92
2023-01-25T09:24:07.228Z,20.60
2023-01-25T09:26:37.790Z,21.48
2023-01-25T09:29:08.658Z,22.33
2023-01-25T09:31:40.792Z,21.02
2023-01-25T09:34:10.085Z,20.10
2023-01-25T09:36:39.222Z,19.05
2023-01-25T09:39:07.557Z,19.45
2023-01-25T09:44:35.809Z,18.75
2023-01-25T09:47:10.474Z,17.58
2023-01-25T09:49:59.410Z,19.60
2023-01-25T09:52:46.527Z,19.67
2023-01-25T09:55:16.464Z,19.60
2023-01-25T09:57:48.055Z,17.00
2023-01-25T10:00:20.612Z,19.77
2023-01-25T10:02:53.013Z,19.90
2023-01-25T10:05:23.918Z,19.98
2023-01-25T10:07:58.616Z,21.17
2023-01-25T10:10:34.017Z,21.88
2023-01-25T10:13:03.998Z,22.13
2023-01-25T10:15:36.540Z,20.83
2023-01-25T10:18:09.537Z,20.27
2023-01-25T10:20:41.521Z,18.10
2023-01-25T10:25:47.934Z,15.95
2023-01-25T10:28:25.595Z,18.00
2023-01-25T10:30:59.494Z,21.23
2023-01-25T10:33:28.871Z,12.52
2023-01-25T10:35:57.937Z,14.73
2023-01-25T10:38:29.036Z,15.10
2023-01-25T10:41:02.108Z,15.73
2023-01-25T10:43:30.543Z,17.00
2023-01-25T10:46:00.058Z,15.80
2023-01-25T10:48:31.319Z,14.55
2023-01-25T10:50:59.638Z,16.58
2023-01-25T10:53:30.984Z,15.18
2023-01-25T10:56:19.449Z,18.80
2023-01-25T10:58:49.341Z,33.47
2023-01-25T11:01:29.263Z,50.83
2023-01-25T11:03:58.324Z,38.38
2023-01-25T11:06:32.820Z,35.55
2023-01-25T11:09:02.074Z,55.67
2023-01-25T11:11:35.707Z,43.95
2023-01-25T11:14:15.622Z,23.13
2023-01-25T11:16:48.038Z,22.98
2023-01-25T11:19:27.046Z,38.28
2023-01-25T11:21:55.927Z,25.63
2023-01-25T11:24:27.900Z,32.05
2023-01-25T11:27:14.825Z,20.63
2023-01-25T11:29:43.293Z,31.00
2023-01-25T11:32:21.569Z,14.60
2023-01-25T11:34:50.653Z,11.63
2023-01-25T11:37:36.394Z,11.77
2023-01-25T11:40:16.033Z,10.32
2023-01-25T11:42:52.068Z,10.32
2023-01-25T11:45:46.362Z,10.32
2023-01-25T11:48:46.457Z,9.32
2023-01-25T11:51:19.256Z,7.32
2023-01-25T11:54:07.406Z,8.63
2023-01-25T11:56:45.921Z,8.20
2023-01-25T11:59:39.894Z,8.25
2023-01-25T12:02:26.713Z,8.13
2023-01-25T12:05:12.885Z,10.68
2023-01-25T12:07:52.535Z,10.63
2023-01-25T12:10:30.779Z,9.75
2023-01-25T12:13:03.171Z,6.25
2023-01-25T12:15:53.318Z,8.80
2023-01-25T12:18:43.206Z,9.75
2023-01-25T12:21:31.319Z,8.52
2023-01-25T12:24:14.173Z,8.80
2023-01-25T12:26:49.652Z,7.40
2023-01-25T12:29:25.930Z,5.93
2023-01-25T12:31:59.752Z,6.93
2023-01-25T12:34:33.555Z,5.88
2023-01-25T12:37:08.563Z,6.32
2023-01-25T12:39:42.219Z,8.27
2023-01-25T12:42:17.241Z,9.85
2023-01-25T12:44:48.845Z,12.70
2023-01-25T12:47:21.600Z,14.10
2023-01-25T12:49:53.947Z,7.65
2023-01-25T12:52:27.175Z,7.90
2023-01-25T12:54:57.674Z,6.47
2023-01-25T12:57:30.125Z,7.03
2023-01-25T13:00:02.201Z,6.60
2023-01-25T13:02:44.231Z,5.50
2023-01-25T13:07:54.378Z,8.00
2023-01-25T13:10:27.109Z,6.20
2023-01-25T13:15:40.004Z,5.95
2023-01-25T13:18:36.644Z,7.80
2023-01-25T13:21:11.240Z,6.53
2023-01-25T13:23:47.133Z,7.28
2023-01-25T13:26:38.180Z,6.20
2023-01-25T13:29:53.230Z,6.00
2023-01-25T13:33:04.626Z,4.63
2023-01-25T13:35:35.050Z,4.55
2023-01-25T13:38:24.507Z,5.35
2023-01-25T13:41:17.432Z,5.38
2023-01-25T13:44:08.512Z,5.38
2023-01-25T13:46:36.683Z,7.68
2023-01-25T13:49:08.056Z,8.82
2023-01-25T13:51:39.185Z,8.57
2023-01-25T13:54:07.748Z,10.13
2023-01-25T13:56:37.417Z,9.90
2023-01-25T13:59:05.747Z,8.93
2023-01-25T14:01:35.372Z,8.13
2023-01-25T14:04:05.407Z,7.75
2023-01-25T14:06:36.134Z,8.23
2023-01-25T14:09:07.755Z,10.63
2023-01-25T14:11:42.401Z,5.93
2023-01-25T14:14:22.265Z,4.82
2023-01-25T14:17:03.530Z,4.63
2023-01-25T14:19:33.438Z,4.30
2023-01-25T14:22:29.129Z,3.95
2023-01-25T14:25:12.286Z,4.82
2023-01-25T14:27:46.016Z,5.93
2023-01-25T14:30:20.493Z,5.97
2023-01-25T14:32:49.352Z,5.00
2023-01-25T14:35:56.520Z,5.45
2023-01-25T14:38:31.396Z,6.82
2023-01-25T14:41:04.551Z,5.32
2023-01-25T14:43:34.198Z,6.28
2023-01-25T14:46:02.817Z,6.20
2023-01-25T14:48:39.197Z,5.50
2023-01-25T14:51:23.450Z,5.57
2023-01-25T14:54:00.455Z,6.25
2023-01-25T14:56:47.679Z,4.95
2023-01-25T14:59:38.708Z,6.15
2023-01-25T15:02:19.940Z,5.95
2023-01-25T15:05:02.858Z,7.55
2023-01-25T15:07:45.383Z,6.18
2023-01-25T15:10:21.486Z,8.00
2023-01-25T15:13:04.172Z,13.57
2023-01-25T15:15:52.002Z,7.78
2023-01-25T15:18:46.154Z,6.53
2023-01-25T15:21:15.357Z,6.88
2023-01-25T15:23:45.095Z,6.68
2023-01-25T15:26:15.619Z,7.53
2023-01-25T15:28:43.857Z,6.50
2023-01-25T15:31:17.727Z,7.03
2023-01-25T15:33:46.517Z,9.27
2023-01-25T15:36:17.651Z,7.65
2023-01-25T15:38:46.096Z,8.63
2023-01-25T15:41:14.224Z,10.95
2023-01-25T15:43:43.124Z,8.65
2023-01-25T15:46:17.954Z,8.20
2023-01-25T15:48:46.983Z,8.32
2023-01-25T15:51:15.018Z,11.25
2023-01-25T15:53:43.943Z,9.45
2023-01-25T15:56:15.064Z,10.55
2023-01-25T15:58:45.329Z,10.50
2023-01-25T16:01:13.372Z,14.13
2023-01-25T16:03:43.128Z,43.33
2023-01-25T16:06:24.976Z,23.38
2023-01-25T16:08:53.179Z,9.48
2023-01-25T16:11:21.158Z,10.05
2023-01-25T16:13:49.669Z,11.10
2023-01-25T16:16:19.687Z,11.93
2023-01-25T16:18:49.546Z,10.38
2023-01-25T16:21:17.582Z,10.70
2023-01-25T16:23:46.071Z,10.77
2023-01-25T16:26:20.350Z,10.48
2023-01-25T16:28:48.967Z,10.35
2023-01-25T16:31:31.250Z,9.45
2023-01-25T16:34:02.334Z,8.95
2023-01-25T16:36:31.455Z,10.68
2023-01-25T16:39:09.666Z,10.68
2023-01-25T16:41:38.632Z,11.10
2023-01-25T16:44:06.907Z,10.15
2023-01-25T16:46:35.691Z,9.40
2023-01-25T16:49:06.884Z,13.50
2023-01-25T16:51:34.989Z,16.63
2023-01-25T16:54:03.244Z,16.25
2023-01-25T16:56:32.889Z,18.10
2023-01-25T16:59:03.680Z,11.23
2023-01-25T17:01:32.168Z,16.58
2023-01-25T17:04:00.408Z,20.45
2023-01-25T17:06:31.555Z,20.00
2023-01-25T17:09:09.428Z,18.67
2023-01-25T17:11:41.084Z,22.55
2023-01-25T17:14:09.783Z,16.98
2023-01-25T17:16:37.745Z,15.80
2023-01-25T17:19:16.942Z,16.52
2023-01-25T17:21:46.711Z,18.17
2023-01-25T17:24:16.472Z,15.90
2023-01-25T17:26:44.886Z,14.60
2023-01-25T17:29:13.669Z,15.45
2023-01-25T17:31:42.169Z,14.05
2023-01-25T17:34:16.032Z,15.05
2023-01-25T17:36:44.522Z,13.93
2023-01-25T17:39:15.627Z,13.70
2023-01-25T17:41:43.995Z,14.55
2023-01-25T17:44:12.216Z,14.40
2023-01-25T17:46:40.556Z,13.45
2023-01-25T17:49:12.586Z,11.90
2023-01-25T17:51:40.510Z,12.35
2023-01-25T17:54:08.963Z,12.95
2023-01-25T17:56:39.637Z,11.63
2023-01-25T17:59:11.303Z,11.52
2023-01-25T18:01:42.467Z,12.15
2023-01-25T18:04:11.072Z,11.15
2023-01-25T18:06:39.112Z,11.05
2023-01-25T18:09:07.629Z,10.68
2023-01-25T18:11:38.324Z,11.02
2023-01-25T18:14:09.868Z,12.20
2023-01-25T18:16:39.664Z,12.88
2023-01-25T18:19:08.685Z,16.10
2023-01-25T18:21:37.840Z,17.38
2023-01-25T18:24:08.867Z,14.90
2023-01-25T18:26:38.400Z,15.05
2023-01-25T18:29:32.186Z,14.55
2023-01-25T18:32:00.732Z,14.75
2023-01-25T18:34:29.115Z,15.77
2023-01-25T18:36:59.256Z,15.95
2023-01-25T18:39:28.145Z,15.52
2023-01-25T18:41:57.611Z,16.50
2023-01-25T18:44:25.755Z,18.40
2023-01-25T18:46:53.780Z,18.42
2023-01-25T18:49:22.093Z,19.80
2023-01-25T18:52:05.263Z,19.63
2023-01-25T18:54:37.131Z,19.70
2023-01-25T18:57:06.766Z,17.70
2023-01-25T18:59:35.181Z,18.33
2023-01-25T19:02:03.556Z,20.05
2023-01-25T19:04:32.017Z,18.15
2023-01-25T19:07:01.478Z,20.33
2023-01-25T19:09:30.363Z,20.20
2023-01-25T19:11:58.605Z,19.65
2023-01-25T19:14:28.370Z,20.83
2023-01-25T19:16:56.379Z,20.17
2023-01-25T19:19:25.148Z,19.25
2023-01-25T19:21:53.217Z,21.48
2023-01-25T19:24:21.484Z,21.05
2023-01-25T19:26:49.602Z,18.30
2023-01-25T19:29:18.268Z,18.70
2023-01-25T19:31:47.620Z,17.65
2023-01-25T19:34:16.267Z,20.58
2023-01-25T19:36:49.819Z,20.58
2023-01-25T19:39:19.002Z,17.55
2023-01-25T19:41:47.105Z,19.42
2023-01-25T19:44:16.320Z,19.20
2023-01-25T19:46:44.535Z,19.00
2023-01-25T19:49:14.960Z,17.35
2023-01-25T19:51:48.795Z,16.10
2023-01-25T19:54:18.659Z,15.50
2023-01-25T19:56:48.250Z,17.13
2023-01-25T19:59:18.391Z,15.65
2023-01-25T20:01:46.525Z,15.40
2023-01-25T20:04:19.578Z,16.25
2023-01-25T20:06:47.849Z,15.60
2023-01-25T20:09:17.301Z,16.00
2023-01-25T20:11:46.228Z,16.77
2023-01-25T20:14:15.270Z,15.88
2023-01-25T20:16:43.222Z,16.10
2023-01-25T20:19:12.462Z,16.15
2023-01-25T20:21:42.097Z,16.55
2023-01-25T20:24:10.891Z,16.20
2023-01-25T20:26:42.704Z,16.98
2023-01-25T20:29:12.566Z,18.35
2023-01-25T20:31:41.740Z,18.42
2023-01-25T20:34:13.018Z,21.20
2023-01-25T20:36:42.877Z,21.00
2023-01-25T20:39:14.436Z,19.10
2023-01-25T20:41:42.540Z,18.27
2023-01-25T20:44:11.343Z,19.25
2023-01-25T20:46:40.495Z,18.63
2023-01-25T20:49:10.556Z,17.92
2023-01-25T20:51:38.489Z,19.55
2023-01-25T20:54:08.064Z,20.08
2023-01-25T20:56:36.120Z,18.42
2023-01-25T20:59:04.466Z,19.83
2023-01-25T21:01:36.614Z,18.67
2023-01-25T21:04:06.018Z,21.00
2023-01-25T21:06:35.186Z,21.85
2023-01-25T21:09:03.930Z,22.42
2023-01-25T21:11:33.802Z,23.80
2023-01-25T21:14:02.221Z,22.85
2023-01-25T21:16:30.404Z,23.02
2023-01-25T21:19:00.107Z,23.33
2023-01-25T21:21:30.100Z,24.23
2023-01-25T21:24:00.288Z,24.83
2023-01-25T21:26:30.278Z,22.27
2023-01-25T21:29:01.087Z,18.30
2023-01-25T21:31:30.815Z,18.55
2023-01-25T21:33:59.382Z,17.08
2023-01-25T21:36:28.638Z,17.35
2023-01-25T21:38:58.070Z,18.40
2023-01-25T21:41:29.456Z,19.25
2023-01-25T21:44:18.013Z,18.40
2023-01-25T21:47:08.658Z,19.00
2023-01-25T21:49:52.708Z,19.10
2023-01-25T21:52:21.144Z,18.33
2023-01-25T21:54:49.286Z,18.00
2023-01-25T21:57:17.202Z,19.23
2023-01-25T21:59:46.795Z,18.40
2023-01-25T22:02:15.935Z,18.75
2023-01-25T22:04:44.151Z,19.98
2023-01-25T22:07:12.556Z,19.73
2023-01-25T22:09:40.764Z,19.35
2023-01-25T22:12:08.723Z,20.55
2023-01-25T22:14:36.938Z,20.75
2023-01-25T22:17:06.538Z,19.15
2023-01-25T22:19:34.694Z,21.70
2023-01-25T22:22:02.632Z,18.73
2023-01-25T22:24:30.961Z,22.27
2023-01-25T22:27:05.497Z,20.92
2023-01-25T22:29:34.843Z,20.95
2023-01-25T22:32:03.083Z,21.15
2023-01-25T22:34:32.649Z,20.70
2023-01-25T22:37:00.593Z,19.33
2023-01-25T22:39:28.858Z,20.80
2023-01-25T22:41:56.989Z,21.38
2023-01-25T22:44:25.388Z,17.20
2023-01-25T22:46:53.794Z,20.85
2023-01-25T22:49:22.046Z,19.65
2023-01-25T22:51:51.349Z,20.05
2023-01-25T22:54:19.750Z,18.80
2023-01-25T22:56:47.672Z,21.42
2023-01-25T22:59:18.879Z,18.92
2023-01-25T23:01:46.983Z,20.50
2023-01-25T23:04:15.407Z,20.05
2023-01-25T23:06:43.369Z,20.52
2023-01-25T23:09:12.946Z,21.15
2023-01-25T23:11:40.908Z,19.55
2023-01-25T23:14:29.390Z,19.52
2023-01-25T23:17:17.738Z,19.50
2023-01-25T23:19:45.231Z,19.08
2023-01-25T23:22:13.247Z,19.02
2023-01-25T23:24:43.205Z,18.38
2023-01-25T23:27:12.470Z,18.58
2023-01-25T23:29:40.833Z,18.27
2023-01-25T23:32:08.874Z,18.50
2023-01-25T23:34:39.627Z,18.17
2023-01-25T23:37:07.597Z,18.35
2023-01-25T23:39:35.757Z,19.08
2023-01-25T23:42:05.203Z,19.23
2023-01-25T23:44:33.412Z,20.25
2023-01-25T23:47:01.630Z,20.55
2023-01-25T23:49:30.112Z,18.80
2023-01-25T23:51:58.005Z,20.33
2023-01-25T23:54:26.976Z,19.95
2023-01-25T23:56:55.226Z,19.45
2023-01-25T23:59:24.739Z,19.98
